SLCO2: Lee Creek At Short, OK

                                SHEF ID:       SLCO2     Lee Creek near Short, OK
STATION TYPE: Stream Gauge

PRECIP STAGE RIV-FLOW BAT-LOAD
in ft cfs volt
Ccp-Rev Ccp-Rev Ccp-Rev Ccp-Rev
(America/Chicago)
04/26 00:00 0.42 3.92 371 12.80
04/26 01:00 0.01 3.93 374 12.77
04/26 02:00 0.00 4.08 428 12.76
04/26 03:00 0.00 4.13 448 12.74
04/26 04:00 0.00 4.09 432 12.72
04/26 05:00 0.00 4.04 414 12.70
04/26 06:00 0.00 4.02 406 12.69
04/26 07:00 0.00 4.11 440 12.67
04/26 08:00 0.00 4.49 607 12.67
04/26 09:00 0.00 4.67 700 12.70
04/26 10:00 0.00 4.81 778 12.78
04/26 11:00 0.00 4.82 784 13.01
04/26 12:00 0.00 4.90 831 13.16
04/26 13:00 0.00 4.97 871 13.16
04/26 14:00 0.00 4.94 854 13.70
04/26 15:00 0.00 4.88 819 13.26
04/26 16:00 0.00 4.81 778 13.18
04/26 17:00 0.00 4.74 738 13.01
04/26 18:00 0.00 4.67 700 12.93
04/26 19:00 0.00 4.61 668 12.87
04/26 20:00 0.00 4.55 637 12.84
04/26 21:00 0.00 4.50 612 12.83
04/26 22:00 0.00 4.45 587 12.82
04/26 23:00 0.00 4.40 563 12.81
Data processed at Mon 27Apr2026 04:41 GMT

NOTICE: If you are parsing this page

Please convert to using our Data API. Starting early 2026 we will be migrating to: https://water.usace.army.mil with modern pages rendered in JavaScript. When this migration completes you will no longer be able to scrape this page! CWMSDataAPI (CDA)

Timeseries IDs (TSIDs)

TSIDs used from left to right in the data table
SHOR.Precip-Inc.Total.1Hour.1Hour.Ccp-Rev
SHOR.Stage.Inst.1Hour.0.Ccp-Rev
SHOR.Flow.Inst.1Hour.0.Ccp-Rev
SHOR.Volt-Battery Load.Inst.1Hour.0.Ccp-Rev

                            

All information presented herein is the property of the government of the United States of America and may be revised or deleted at any time without prior notice. Dissemination of this information without the expressed written consent of the Public Affairs Office, Tulsa District U.S. Army Corps of Engineers is strictly prohibited. These data are gathered electronically and, as presented, have NOT undergone any form of quality control. These data are NOT guaranteed to be valid or correct.